Time;durP1;ratioP1;P1;durP2;ratioP2;P2;SDS_P1;SDS_P2;PMS_P1;PMS_P2;Temp;Humidity;BMP_temperature;BMP_pressure;BME280_temperature;BME280_humidity;BME280_pressure;Samples;Min_cycle;Max_cycle;Signal;HPM_P1;HPM_P2
2022/12/16 00:00:15;;;;;;;45.47;31.10;;;0.40;99.90;;;;;;5096086;28;20184;-72
2022/12/16 00:02:41;;;;;;;39.27;30.40;;;0.50;99.90;;;;;;5095105;28;20169;-72
2022/12/16 00:05:07;;;;;;;46.17;32.30;;;0.40;99.90;;;;;;5095220;28;20498;-72
2022/12/16 00:07:33;;;;;;;40.73;29.70;;;0.20;99.90;;;;;;5096413;28;20399;-72
2022/12/16 00:09:59;;;;;;;42.30;30.20;;;0.40;99.90;;;;;;5095816;28;20430;-72
2022/12/16 00:12:25;;;;;;;43.27;30.80;;;0.40;99.90;;;;;;5096653;28;20963;-72
2022/12/16 00:14:50;;;;;;;44.67;31.00;;;0.30;99.90;;;;;;5097559;28;20176;-70
2022/12/16 00:17:16;;;;;;;44.20;31.17;;;0.40;99.90;;;;;;5096975;28;20203;-72
2022/12/16 00:19:42;;;;;;;45.47;30.70;;;0.60;99.90;;;;;;5097934;28;20189;-72
2022/12/16 00:22:07;;;;;;;45.73;32.40;;;0.50;99.90;;;;;;5097509;28;20516;-72
2022/12/16 00:24:33;;;;;;;39.60;28.43;;;0.40;99.90;;;;;;5096772;28;20667;-72
2022/12/16 00:26:58;;;;;;;44.77;31.00;;;0.50;99.90;;;;;;5095483;28;20513;-72
2022/12/16 00:29:24;;;;;;;44.43;32.47;;;0.50;99.90;;;;;;5095846;28;20228;-72
2022/12/16 00:31:49;;;;;;;47.67;32.43;;;0.60;99.90;;;;;;5095261;28;20201;-72
2022/12/16 00:34:15;;;;;;;47.13;31.40;;;0.50;99.90;;;;;;5096220;28;20168;-72
2022/12/16 00:36:42;;;;;;;48.93;31.90;;;0.60;99.90;;;;;;5095449;28;20627;-71
2022/12/16 00:39:08;;;;;;;42.30;30.60;;;0.60;99.90;;;;;;5095575;28;20434;-72
2022/12/16 00:41:34;;;;;;;44.57;31.57;;;0.40;99.90;;;;;;5095369;28;20418;-72
2022/12/16 00:44:00;;;;;;;45.43;31.90;;;0.40;99.90;;;;;;5093950;28;20939;-72
2022/12/16 00:46:25;;;;;;;46.37;33.83;;;0.30;99.90;;;;;;5095700;28;20635;-72
2022/12/16 00:48:51;;;;;;;42.40;32.00;;;0.30;99.90;;;;;;5095667;28;20183;-72
2022/12/16 00:51:16;;;;;;;44.77;32.63;;;0.40;99.90;;;;;;5094951;28;20197;-71
2022/12/16 00:53:42;;;;;;;48.63;32.30;;;0.50;99.90;;;;;;5094739;28;20227;-72
2022/12/16 00:56:10;;;;;;;44.30;31.30;;;0.50;99.90;;;;;;5094045;28;20553;-71
2022/12/16 00:58:36;;;;;;;41.30;30.83;;;0.50;99.90;;;;;;5093150;28;20169;-71
2022/12/16 01:01:04;;;;;;;44.27;29.93;;;0.60;99.90;;;;;;5092137;28;20435;-72
2022/12/16 01:03:30;;;;;;;47.80;32.80;;;0.60;99.90;;;;;;5093599;28;20402;-70
2022/12/16 01:05:55;;;;;;;44.93;31.70;;;0.70;99.90;;;;;;5092415;28;20475;-73
2022/12/16 01:08:21;;;;;;;49.63;32.80;;;0.80;99.90;;;;;;5093857;28;20196;-72
2022/12/16 01:10:52;;;;;;;40.97;30.13;;;0.80;99.90;;;;;;5093725;28;20349;-71
2022/12/16 01:13:19;;;;;;;46.57;31.67;;;0.90;99.90;;;;;;5093683;28;20701;-71
2022/12/16 01:15:45;;;;;;;44.60;31.37;;;0.90;99.90;;;;;;5080295;28;20409;-73
2022/12/16 01:18:10;;;;;;;47.00;34.33;;;1.00;99.90;;;;;;5073129;28;20438;-72
2022/12/16 01:20:37;;;;;;;42.93;29.23;;;0.80;99.90;;;;;;5072900;28;20664;-72
2022/12/16 01:23:03;;;;;;;43.43;30.83;;;0.70;99.90;;;;;;5073176;28;20543;-72
2022/12/16 01:25:28;;;;;;;40.57;30.10;;;0.60;99.90;;;;;;5073631;28;20503;-72
2022/12/16 01:27:54;;;;;;;46.97;33.57;;;0.50;99.90;;;;;;5082773;28;20184;-73
2022/12/16 01:30:19;;;;;;;47.23;30.87;;;0.50;99.90;;;;;;5093471;28;20258;-73
2022/12/16 01:32:46;;;;;;;43.80;31.20;;;0.50;99.90;;;;;;5082053;28;20303;-73
2022/12/16 01:35:12;;;;;;;41.97;30.93;;;0.50;99.90;;;;;;5053318;28;20437;-73
2022/12/16 01:37:38;;;;;;;45.93;32.93;;;0.40;99.90;;;;;;5053795;28;20170;-72
2022/12/16 01:40:04;;;;;;;40.60;29.70;;;0.50;99.90;;;;;;5052929;28;20200;-73
2022/12/16 01:42:32;;;;;;;46.73;32.83;;;0.40;99.90;;;;;;5052455;28;20410;-73
2022/12/16 01:45:23;;;;;;;42.93;30.53;;;0.40;99.90;;;;;;5053189;28;20413;-72
2022/12/16 01:47:50;;;;;;;44.50;32.37;;;0.60;99.90;;;;;;5052980;28;20397;-72
2022/12/16 01:50:18;;;;;;;45.10;33.90;;;0.50;99.90;;;;;;5052741;28;20429;-72
2022/12/16 01:52:51;;;;;;;45.53;32.07;;;0.40;99.90;;;;;;5052854;28;20502;-72
2022/12/16 01:55:32;;;;;;;42.27;30.57;;;0.40;99.90;;;;;;5051627;28;20986;-72
2022/12/16 01:58:03;;;;;;;44.43;29.43;;;0.50;99.90;;;;;;5074950;28;20504;-72
2022/12/16 02:00:28;;;;;;;47.97;31.60;;;0.40;99.90;;;;;;5093234;28;20431;-72
2022/12/16 02:02:56;;;;;;;39.17;28.43;;;0.30;99.90;;;;;;5093283;28;20495;-72
2022/12/16 02:05:22;;;;;;;38.40;27.63;;;0.40;99.90;;;;;;5093438;28;20173;-71
2022/12/16 02:08:10;;;;;;;40.87;30.13;;;0.30;99.90;;;;;;5093238;28;20936;-71
2022/12/16 02:10:49;;;;;;;37.47;28.30;;;0.30;99.90;;;;;;5093177;28;20423;-71
2022/12/16 02:13:52;;;;;;;45.30;32.30;;;0.30;99.90;;;;;;5091362;28;20551;-71
2022/12/16 02:16:52;;;;;;;41.97;28.57;;;0.30;99.90;;;;;;5091511;28;20410;-72
2022/12/16 02:19:23;;;;;;;43.83;28.30;;;0.60;99.90;;;;;;5093227;28;20398;-70
2022/12/16 02:22:18;;;;;;;37.27;28.03;;;0.60;99.90;;;;;;5092770;28;20395;-72
2022/12/16 02:25:08;;;;;;;37.43;27.27;;;0.70;99.90;;;;;;5092775;28;20391;-72
2022/12/16 02:27:49;;;;;;;39.70;27.40;;;0.50;99.90;;;;;;5089515;28;20435;-72
2022/12/16 02:30:36;;;;;;;39.53;29.87;;;0.50;99.90;;;;;;5092696;28;20446;-72
2022/12/16 02:33:17;;;;;;;46.90;34.43;;;0.50;99.90;;;;;;5094394;28;20444;-72
2022/12/16 02:36:10;;;;;;;42.20;29.67;;;0.60;99.90;;;;;;5097331;28;20420;-72
2022/12/16 02:39:02;;;;;;;42.83;31.70;;;0.80;99.90;;;;;;5097493;28;20398;-71
2022/12/16 02:41:44;;;;;;;39.80;28.40;;;0.70;99.90;;;;;;5095646;28;20477;-73
2022/12/16 02:44:11;;;;;;;39.80;28.97;;;0.50;99.90;;;;;;5096822;28;20437;-72
2022/12/16 02:46:53;;;;;;;42.10;29.60;;;0.30;99.90;;;;;;5094083;28;20419;-72
2022/12/16 02:49:22;;;;;;;39.30;27.40;;;0.30;99.90;;;;;;5096484;28;20380;-71
2022/12/16 02:51:48;;;;;;;47.90;30.67;;;0.00;99.90;;;;;;5096364;28;20490;-71
2022/12/16 02:54:16;;;;;;;43.10;31.67;;;0.10;99.90;;;;;;5096125;28;20968;-71
2022/12/16 02:57:00;;;;;;;41.70;30.47;;;0.40;99.90;;;;;;5096197;28;20399;-72
2022/12/16 02:59:32;;;;;;;48.93;34.67;;;0.60;99.90;;;;;;5095833;28;20415;-71
2022/12/16 03:02:32;;;;;;;44.80;31.00;;;0.70;99.90;;;;;;5096112;28;20432;-72
2022/12/16 03:05:05;;;;;;;38.43;28.03;;;0.70;99.90;;;;;;5095407;28;20395;-72
2022/12/16 03:07:33;;;;;;;40.63;29.43;;;0.80;99.90;;;;;;5077779;28;20403;-71
2022/12/16 03:09:59;;;;;;;39.77;30.27;;;0.80;99.90;;;;;;5074785;28;20435;-72
2022/12/16 03:12:26;;;;;;;38.20;28.60;;;0.80;99.90;;;;;;5076260;28;20985;-72
2022/12/16 03:14:53;;;;;;;41.43;29.17;;;0.80;99.90;;;;;;5076722;28;20913;-72
2022/12/16 03:17:21;;;;;;;39.13;29.47;;;0.80;99.90;;;;;;5076074;28;20502;-72
2022/12/16 03:19:55;;;;;;;43.30;29.33;;;0.70;99.90;;;;;;5075918;28;20432;-71
2022/12/16 03:22:24;;;;;;;37.17;30.13;;;0.80;99.90;;;;;;5076053;28;20403;-72
2022/12/16 03:24:50;;;;;;;38.40;28.33;;;1.00;99.90;;;;;;5075360;28;20407;-72
2022/12/16 03:27:23;;;;;;;41.20;28.43;;;0.90;99.90;;;;;;5078208;28;20472;-72
2022/12/16 03:30:05;;;;;;;44.00;29.37;;;0.80;99.90;;;;;;5095296;28;20220;-72
2022/12/16 03:32:43;;;;;;;38.10;28.60;;;0.60;99.90;;;;;;5076007;28;20505;-74
2022/12/16 03:35:12;;;;;;;36.20;26.50;;;0.70;99.90;;;;;;5055326;28;20399;-72
2022/12/16 03:37:40;;;;;;;40.60;29.33;;;0.80;99.90;;;;;;5055037;28;20403;-73
2022/12/16 03:40:08;;;;;;;35.83;26.03;;;0.70;99.90;;;;;;5055001;28;20527;-73
2022/12/16 03:42:35;;;;;;;34.50;24.97;;;0.70;99.90;;;;;;5054269;28;20413;-75
2022/12/16 03:45:01;;;;;;;36.70;28.13;;;0.50;99.90;;;;;;5054127;28;20490;-75
2022/12/16 03:47:28;;;;;;;37.47;26.17;;;0.30;99.90;;;;;;5055393;28;20417;-75
2022/12/16 03:49:54;;;;;;;37.23;27.17;;;0.20;99.90;;;;;;5053725;28;20964;-74
2022/12/16 03:52:20;;;;;;;36.27;26.40;;;0.30;99.90;;;;;;5053297;28;20491;-75
2022/12/16 03:54:46;;;;;;;34.40;26.30;;;0.30;99.90;;;;;;5064727;28;20419;-75
2022/12/16 03:57:11;;;;;;;36.70;26.10;;;0.40;99.90;;;;;;5094799;28;20434;-75
2022/12/16 03:59:37;;;;;;;35.10;26.27;;;0.30;99.90;;;;;;5094477;28;20195;-75
2022/12/16 04:02:03;;;;;;;38.70;26.80;;;0.30;99.90;;;;;;5094816;28;20165;-74
2022/12/16 04:04:29;;;;;;;35.30;26.00;;;0.40;99.90;;;;;;5094832;28;20168;-74
2022/12/16 04:09:39;;;;;;;36.50;27.47;;;0.40;99.90;;;;;;5094849;28;20981;-75
2022/12/16 04:25:48;;;;;;;35.73;26.37;;;0.50;99.90;;;;;;5095150;28;20456;-75
2022/12/16 04:28:14;;;;;;;33.43;24.87;;;0.40;99.90;;;;;;5092858;28;20439;-75
2022/12/16 04:30:40;;;;;;;31.73;23.03;;;0.50;99.90;;;;;;5094327;28;20447;-75
